TimeCDT,TemperatureF,Dew PointF,Humidity,Sea Level PressureIn,VisibilityMPH,Wind Direction,Wind SpeedMPH,Gust SpeedMPH,PrecipitationIn,Events,Conditions,WindDirDegrees,DateUTC
12:52 AM,37.9,28.0,68,30.17,10.0,Calm,Calm,-,N/A,,Clear,0,2012-10-10 05:52:00
1:52 AM,34.0,28.0,79,30.19,10.0,Calm,Calm,-,N/A,,Clear,0,2012-10-10 06:52:00
2:52 AM,37.0,28.0,70,30.20,10.0,Calm,Calm,-,N/A,,Clear,0,2012-10-10 07:52:00
3:52 AM,34.0,27.0,75,30.20,10.0,South,3.5,-,N/A,,Clear,180,2012-10-10 08:52:00
4:52 AM,35.1,27.0,72,30.21,10.0,SE,3.5,-,N/A,,Clear,130,2012-10-10 09:52:00
5:52 AM,35.1,28.0,76,30.22,10.0,Calm,Calm,-,N/A,,Clear,0,2012-10-10 10:52:00
6:52 AM,36.0,26.1,67,30.24,10.0,SW,3.5,-,N/A,,Clear,220,2012-10-10 11:52:00
7:52 AM,34.0,27.0,75,30.25,10.0,ESE,5.8,-,N/A,,Clear,120,2012-10-10 12:52:00
8:52 AM,39.0,28.9,67,30.26,10.0,Calm,Calm,-,N/A,,Clear,0,2012-10-10 13:52:00
9:52 AM,44.1,28.0,53,30.27,10.0,Calm,Calm,-,N/A,,Partly Cloudy,0,2012-10-10 14:52:00
10:52 AM,52.0,27.0,38,30.25,10.0,SW,4.6,-,N/A,,Partly Cloudy,220,2012-10-10 15:52:00
11:52 AM,55.0,24.1,30,30.24,10.0,WSW,4.6,-,N/A,,Partly Cloudy,250,2012-10-10 16:52:00
12:52 PM,55.9,25.0,30,30.22,10.0,Variable,3.5,-,N/A,,Partly Cloudy,0,2012-10-10 17:52:00
1:52 PM,59.0,25.0,27,30.19,10.0,SW,12.7,16.1,N/A,,Partly Cloudy,230,2012-10-10 18:52:00
2:52 PM,60.1,26.1,27,30.14,10.0,SW,10.4,-,N/A,,Partly Cloudy,230,2012-10-10 19:52:00
3:52 PM,63.0,28.0,27,30.11,10.0,SW,6.9,-,N/A,,Partly Cloudy,230,2012-10-10 20:52:00
4:52 PM,63.0,28.0,27,30.08,10.0,SW,13.8,20.7,N/A,,Partly Cloudy,230,2012-10-10 21:52:00
5:52 PM,63.0,28.0,27,30.06,10.0,SSW,12.7,-,N/A,,Partly Cloudy,200,2012-10-10 22:52:00
6:52 PM,61.0,28.9,30,30.06,10.0,South,6.9,-,N/A,,Partly Cloudy,180,2012-10-10 23:52:00
7:52 PM,52.0,30.0,43,30.07,10.0,South,6.9,-,N/A,,Clear,170,2012-10-11 00:52:00
8:52 PM,51.1,30.0,44,30.07,10.0,SSE,8.1,-,N/A,,Clear,160,2012-10-11 01:52:00
9:52 PM,50.0,30.0,46,30.07,10.0,SSE,9.2,-,N/A,,Clear,160,2012-10-11 02:52:00
10:52 PM,46.9,30.0,52,30.07,10.0,SSE,9.2,-,N/A,,Clear,160,2012-10-11 03:52:00
11:52 PM,46.9,30.0,52,30.06,10.0,SSE,9.2,-,N/A,,Clear,160,2012-10-11 04:52:00